KIWD/IWD METAR and TAF weather

Enter ICAO airport designator
Station Type Date Time Source
KIWD METAR 2020/09/22 04:56 UTC NOAA

KIWD 220456Z AUTO 22010KT 10SM CLR 17/13 A3009 RMK AO2 SLP188 T01670128 402280144


Station Type Date Time Source
KIWD Decoded METAR 2020/09/22 04:56 UTC NOAA

Ironwood, Gogebic-Iron County Airport, MI, United States (KIWD) 46-32N 090-08W
Sep 22, 2020 - 12:56 AM EDT / 2020.09.22 0456 UTC
Wind: from the SW (220 degrees) at 12 MPH (10 KT):0
Visibility: 10 mile(s):0
Sky conditions: clear
Temperature: 62.1 F (16.7 C)
Dew Point: 55.0 F (12.8 C)
Relative Humidity: 77%
Pressure (altimeter): 30.09 in. Hg (1018 hPa)
ob: KIWD 220456Z AUTO 22010KT 10SM CLR 17/13 A3009 RMK AO2 SLP188 T01670128 402280144
cycle: 5

Station Type Date Time Source
KIWD TAF 2020/09/21 18:39 UTC NOAA

TAF KIWD 211737Z 2118/2218 20014G24KT P6SM SCT100
FM220000 20012KT P6SM FEW090
FM221000 22006KT P6SM FEW200
FM221700 27005KT P6SM SKC

Example: see airport list